Time;durP1;ratioP1;P1;durP2;ratioP2;P2;SDS_P1;SDS_P2;PMS_P1;PMS_P2;Temp;Humidity;BMP_temperature;BMP_pressure;BME280_temperature;BME280_humidity;BME280_pressure;Samples;Min_cycle;Max_cycle;Signal;HPM_P1;HPM_P2
2021/04/01 00:00:38;;;;;;;16.90;8.23;;;10.90;99.90;;;;;;5101994;27;20039;-75
2021/04/01 00:03:05;;;;;;;17.95;7.32;;;11.00;99.90;;;;;;5101282;27;20071;-75
2021/04/01 00:05:32;;;;;;;17.92;7.35;;;10.80;99.90;;;;;;5102274;27;20411;-74
2021/04/01 00:07:59;;;;;;;17.15;7.53;;;10.80;99.90;;;;;;5098329;27;20051;-75
2021/04/01 00:10:28;;;;;;;19.85;8.35;;;10.90;99.90;;;;;;5096777;27;20047;-74
2021/04/01 00:12:55;;;;;;;19.30;8.23;;;10.80;99.90;;;;;;5096670;27;20566;-74
2021/04/01 00:15:22;;;;;;;15.65;9.07;;;10.60;99.90;;;;;;5100516;27;20112;-74
2021/04/01 00:17:48;;;;;;;16.67;7.65;;;10.60;99.90;;;;;;5096976;27;20400;-75
2021/04/01 00:20:16;;;;;;;19.08;8.05;;;10.50;99.90;;;;;;5097264;27;20120;-74
2021/04/01 00:22:43;;;;;;;16.13;8.55;;;10.40;99.90;;;;;;5100181;27;20044;-75
2021/04/01 00:25:12;;;;;;;15.65;7.80;;;10.50;99.90;;;;;;5098693;27;20048;-73
2021/04/01 00:27:40;;;;;;;18.05;7.57;;;10.40;99.90;;;;;;5098210;27;20112;-75
2021/04/01 00:30:09;;;;;;;19.10;8.48;;;10.40;99.90;;;;;;5097336;27;20062;-74
2021/04/01 00:32:36;;;;;;;18.48;7.78;;;10.40;99.90;;;;;;5097387;27;20039;-74
2021/04/01 00:35:03;;;;;;;22.63;8.18;;;10.40;99.90;;;;;;5098475;27;20058;-75
2021/04/01 00:37:31;;;;;;;21.27;8.90;;;10.50;99.90;;;;;;5093522;27;20076;-74
2021/04/01 00:39:57;;;;;;;17.15;8.48;;;10.40;99.90;;;;;;5094753;27;20561;-74
2021/04/01 00:42:24;;;;;;;;;;;10.40;99.90;;;;;;5094353;27;20040;-74
2021/04/01 00:44:51;;;;;;;18.83;7.85;;;10.40;99.90;;;;;;5095012;27;19919;-74
2021/04/01 00:47:17;;;;;;;19.90;7.88;;;10.40;99.90;;;;;;5095270;27;20047;-74
2021/04/01 00:49:44;;;;;;;16.25;7.55;;;10.40;99.90;;;;;;5091299;27;20062;-74
2021/04/01 00:52:10;;;;;;;;;;;10.20;99.90;;;;;;5094794;27;21105;-75
2021/04/01 00:54:38;;;;;;;16.10;7.28;;;10.10;99.90;;;;;;5096714;27;19963;-74
2021/04/01 00:57:05;;;;;;;24.52;8.88;;;10.10;99.90;;;;;;5094461;27;20442;-75
2021/04/01 00:59:32;;;;;;;17.15;7.53;;;10.10;99.90;;;;;;5096564;27;20237;-74
2021/04/01 01:02:04;;;;;;;16.50;8.18;;;10.10;99.90;;;;;;5098594;27;20069;-74
2021/04/01 01:04:32;;;;;;;15.60;8.15;;;10.00;99.90;;;;;;5095513;27;20048;-75
2021/04/01 01:06:59;;;;;;;18.70;8.32;;;10.00;99.90;;;;;;5096362;27;20047;-75
2021/04/01 01:09:26;;;;;;;19.25;7.57;;;10.00;99.90;;;;;;5094036;27;20043;-74
2021/04/01 01:11:52;;;;;;;19.75;8.63;;;9.90;99.90;;;;;;5094952;27;20780;-75
2021/04/01 01:14:19;;;;;;;16.90;8.38;;;10.00;99.90;;;;;;5092363;27;20560;-75
2021/04/01 01:16:47;;;;;;;14.82;8.25;;;9.90;99.90;;;;;;5090849;27;20059;-74
2021/04/01 01:19:16;;;;;;;18.33;8.60;;;9.90;99.90;;;;;;5090039;27;20055;-74
2021/04/01 01:21:43;;;;;;;21.77;8.38;;;9.80;99.90;;;;;;5096096;27;20522;-75
2021/04/01 01:24:13;;;;;;;16.15;7.88;;;9.80;99.90;;;;;;5093505;27;20058;-75
2021/04/01 01:26:40;;;;;;;15.63;8.15;;;9.80;99.90;;;;;;5087763;27;20316;-74
2021/04/01 01:29:07;;;;;;;14.93;7.40;;;9.60;99.90;;;;;;5081223;27;20124;-74
2021/04/01 01:31:36;;;;;;;17.83;7.75;;;9.60;99.90;;;;;;5081074;27;20039;-75
2021/04/01 01:34:03;;;;;;;16.80;7.82;;;9.70;99.90;;;;;;5080736;27;20051;-74
2021/04/01 01:36:29;;;;;;;16.70;8.30;;;9.80;99.90;;;;;;5088948;27;20112;-75
2021/04/01 01:38:56;;;;;;;16.08;7.55;;;9.70;99.90;;;;;;5093667;27;20043;-75
2021/04/01 01:41:23;;;;;;;20.05;8.57;;;9.60;99.90;;;;;;5087612;27;20120;-74
2021/04/01 01:43:51;;;;;;;17.02;8.27;;;9.50;99.90;;;;;;5087685;27;20055;-75
2021/04/01 01:46:18;;;;;;;17.50;8.75;;;9.50;99.90;;;;;;5098375;27;20039;-74
2021/04/01 01:48:44;;;;;;;;;;;9.50;99.90;;;;;;5097953;27;20051;-74
2021/04/01 01:51:11;;;;;;;18.35;8.52;;;9.50;99.90;;;;;;5097619;27;19923;-74
2021/04/01 01:53:37;;;;;;;21.13;8.57;;;9.50;99.90;;;;;;5099248;27;20749;-74
2021/04/01 01:56:04;;;;;;;15.57;8.13;;;9.50;99.90;;;;;;5096077;27;20063;-75
2021/04/01 01:58:32;;;;;;;13.73;7.50;;;9.50;99.90;;;;;;5097412;27;20047;-74
2021/04/01 02:00:59;;;;;;;17.85;8.15;;;9.40;99.90;;;;;;5093885;27;20051;-75
2021/04/01 02:03:26;;;;;;;19.23;7.97;;;9.40;99.90;;;;;;5091328;27;20112;-72
2021/04/01 02:05:53;;;;;;;15.15;8.20;;;9.50;99.90;;;;;;5091362;27;20051;-72
2021/04/01 02:08:20;;;;;;;19.45;9.23;;;9.40;99.90;;;;;;5093405;27;20078;-75
2021/04/01 02:10:49;;;;;;;25.15;8.50;;;9.30;99.90;;;;;;5087955;27;20515;-75
2021/04/01 02:13:18;;;;;;;18.50;8.50;;;9.40;99.90;;;;;;5084996;27;20411;-75
2021/04/01 02:15:48;;;;;;;17.15;8.68;;;9.30;99.90;;;;;;5088223;27;20051;-75
2021/04/01 02:18:16;;;;;;;17.83;8.63;;;9.20;99.90;;;;;;5092986;27;20132;-72
2021/04/01 02:20:46;;;;;;;18.02;8.52;;;9.20;99.90;;;;;;5087792;27;20043;-72
2021/04/01 02:23:15;;;;;;;14.65;8.75;;;9.10;99.90;;;;;;5090441;27;20055;-73
2021/04/01 02:25:43;;;;;;;18.15;7.97;;;9.00;99.90;;;;;;5092266;27;20893;-73
2021/04/01 02:28:10;;;;;;;19.55;8.10;;;9.00;99.90;;;;;;5101339;27;20073;-73
2021/04/01 02:30:38;;;;;;;19.25;8.73;;;9.00;99.90;;;;;;5112124;27;21022;-72
2021/04/01 02:33:06;;;;;;;13.70;7.43;;;9.10;99.90;;;;;;5105996;27;20059;-73
2021/04/01 02:35:35;;;;;;;16.38;8.20;;;8.90;99.90;;;;;;5110609;27;20043;-73
2021/04/01 02:38:02;;;;;;;18.35;8.70;;;8.90;99.90;;;;;;5090928;27;20043;-72
2021/04/01 02:40:29;;;;;;;17.00;8.20;;;8.80;99.90;;;;;;5094152;27;20078;-73
2021/04/01 02:42:55;;;;;;;16.02;8.25;;;8.80;99.90;;;;;;5095827;27;20059;-73
2021/04/01 02:45:21;;;;;;;;;;;8.80;99.90;;;;;;5086933;27;20047;-73
2021/04/01 02:47:48;;;;;;;19.08;8.68;;;8.90;99.90;;;;;;5093411;27;20295;-72
2021/04/01 02:50:16;;;;;;;17.10;7.85;;;8.90;99.90;;;;;;5090258;27;20171;-73
2021/04/01 02:52:42;;;;;;;22.90;9.07;;;8.80;99.90;;;;;;5095743;27;20409;-73
2021/04/01 02:55:11;;;;;;;19.00;9.27;;;8.80;99.90;;;;;;5088071;27;20150;-72
2021/04/01 02:57:38;;;;;;;16.30;8.38;;;8.60;99.90;;;;;;5091832;27;20043;-73
2021/04/01 03:00:08;;;;;;;17.95;8.23;;;8.60;99.90;;;;;;5091871;28;20075;-73
2021/04/01 03:02:35;;;;;;;19.67;8.18;;;8.50;99.90;;;;;;5091529;28;20115;-73
2021/04/01 03:05:06;;;;;;;18.70;9.10;;;8.50;99.90;;;;;;5086655;28;20082;-73
2021/04/01 03:07:35;;;;;;;18.80;9.10;;;8.50;99.90;;;;;;5094099;28;20048;-72
2021/04/01 03:10:02;;;;;;;17.58;8.60;;;8.50;99.90;;;;;;5089916;28;20052;-72
2021/04/01 03:12:28;;;;;;;22.17;10.00;;;8.40;99.90;;;;;;5088509;28;20078;-72
2021/04/01 03:14:54;;;;;;;;;;;8.40;99.90;;;;;;5086407;28;20059;-72
2021/04/01 03:17:21;;;;;;;22.73;10.32;;;8.30;99.90;;;;;;5086343;28;20168;-72
2021/04/01 03:19:47;;;;;;;;;;;8.40;99.90;;;;;;5096538;28;20051;-73
2021/04/01 03:22:14;;;;;;;25.88;10.00;;;8.40;99.90;;;;;;5094023;28;19926;-72
2021/04/01 03:24:41;;;;;;;18.48;9.90;;;8.50;99.90;;;;;;5096014;27;20096;-73
2021/04/01 03:27:08;;;;;;;22.13;10.35;;;8.50;99.90;;;;;;5098658;27;20055;-72
2021/04/01 03:29:34;;;;;;;20.00;9.77;;;8.70;99.90;;;;;;5102199;27;20043;-72
2021/04/01 03:32:01;;;;;;;24.27;10.40;;;8.60;99.90;;;;;;5096897;27;20052;-72
2021/04/01 03:34:28;;;;;;;18.52;10.13;;;8.50;99.90;;;;;;5098011;27;20043;-72
2021/04/01 03:36:54;;;;;;;19.45;9.63;;;8.40;99.90;;;;;;5089389;27;20518;-73
2021/04/01 03:39:22;;;;;;;24.83;10.32;;;8.40;99.90;;;;;;5088891;27;20151;-72
2021/04/01 03:41:49;;;;;;;17.70;8.93;;;8.30;99.90;;;;;;5092115;27;20410;-72
2021/04/01 03:44:16;;;;;;;20.75;9.82;;;8.50;99.90;;;;;;5097132;27;20052;-72
2021/04/01 03:46:42;;;;;;;24.88;10.23;;;8.60;99.90;;;;;;5103017;27;20051;-72
2021/04/01 03:49:09;;;;;;;21.40;9.82;;;8.60;99.90;;;;;;5098863;27;20530;-73
2021/04/01 03:51:35;;;;;;;20.75;10.10;;;8.40;99.90;;;;;;5098679;27;20079;-72
2021/04/01 03:54:02;;;;;;;;;;;8.20;99.90;;;;;;5099480;27;20043;-73
2021/04/01 03:56:28;;;;;;;19.73;9.00;;;8.00;99.90;;;;;;5093917;27;19963;-73
2021/04/01 03:59:02;;;;;;;23.80;11.67;;;8.00;99.90;;;;;;5094305;27;20055;-73
2021/04/01 04:04:27;;;;;;;25.73;10.10;;;8.10;99.90;;;;;;5099312;27;20054;-73
2021/04/01 04:09:51;;;;;;;22.83;10.00;;;8.10;99.90;;;;;;5088489;27;20041;-73
2021/04/01 04:12:26;;;;;;;18.13;8.97;;;8.00;99.90;;;;;;5088631;27;20051;-73
2021/04/01 04:15:03;;;;;;;18.40;9.80;;;8.00;99.90;;;;;;5092160;27;20355;-72
2021/04/01 04:17:29;;;;;;;18.35;9.45;;;7.90;99.90;;;;;;5092353;27;20047;-73
2021/04/01 04:19:56;;;;;;;21.10;10.03;;;8.00;99.90;;;;;;5090796;27;20051;-73
2021/04/01 04:22:23;;;;;;;22.23;9.70;;;8.10;99.90;;;;;;5087229;27;20058;-72
2021/04/01 04:24:50;;;;;;;20.33;10.67;;;8.10;99.90;;;;;;5092791;27;20194;-72
2021/04/01 04:27:22;;;;;;;18.20;9.93;;;7.90;99.90;;;;;;5091988;27;20051;-72
2021/04/01 04:29:59;;;;;;;21.53;9.83;;;7.80;99.90;;;;;;5092249;27;20078;-72
2021/04/01 04:32:26;;;;;;;17.58;9.50;;;7.80;99.90;;;;;;5091497;27;20055;-72
2021/04/01 04:34:56;;;;;;;22.37;10.00;;;7.70;99.90;;;;;;5087424;27;20124;-73
2021/04/01 04:37:22;;;;;;;22.63;10.33;;;7.60;99.90;;;;;;5091076;27;20039;-73
2021/04/01 04:39:49;;;;;;;19.60;10.03;;;7.80;99.90;;;;;;5086841;27;20079;-73
2021/04/01 04:42:15;;;;;;;18.77;9.73;;;7.80;99.90;;;;;;5085681;27;20051;-72
2021/04/01 04:44:42;;;;;;;20.53;10.20;;;7.80;99.90;;;;;;5085461;27;20058;-72
2021/04/01 04:47:08;;;;;;;;;;;7.80;99.90;;;;;;5088945;27;20043;-72
2021/04/01 04:49:36;;;;;;;20.30;9.43;;;7.80;99.90;;;;;;5088191;27;19920;-72
2021/04/01 04:52:03;;;;;;;17.93;9.30;;;7.80;99.90;;;;;;5083271;27;20058;-72
2021/04/01 04:54:30;;;;;;;21.43;10.07;;;7.70;99.90;;;;;;5086407;27;20062;-72
2021/04/01 04:56:58;;;;;;;23.13;9.43;;;7.60;99.90;;;;;;5089566;27;20083;-72
2021/04/01 04:59:29;;;;;;;22.50;10.53;;;7.60;99.90;;;;;;5088958;27;20051;-73
2021/04/01 05:04:42;;;;;;;25.03;10.57;;;7.60;99.90;;;;;;5084961;27;20051;-73
2021/04/01 05:07:08;;;;;;;25.40;9.73;;;7.70;99.90;;;;;;5088450;27;20534;-72
2021/04/01 05:09:35;;;;;;;26.23;11.57;;;7.80;99.90;;;;;;5088340;27;20051;-73
2021/04/01 05:12:02;;;;;;;24.93;10.33;;;7.70;99.90;;;;;;5085172;27;20039;-72
2021/04/01 05:14:28;;;;;;;21.47;10.63;;;7.70;99.90;;;;;;5084688;27;20088;-72
2021/04/01 05:16:55;;;;;;;21.10;10.73;;;7.80;99.90;;;;;;5085362;27;20181;-73
2021/04/01 05:19:22;;;;;;;;;;;7.90;99.90;;;;;;5088229;27;20043;-73
2021/04/01 05:21:53;;;;;;;18.55;9.50;;;7.90;99.90;;;;;;5085205;27;19927;-73
2021/04/01 05:24:20;;;;;;;20.20;10.63;;;8.00;99.90;;;;;;5083249;27;20070;-72
2021/04/01 05:29:29;;;;;;;20.27;9.53;;;8.00;99.90;;;;;;5087487;27;20047;-73
2021/04/01 05:31:56;;;;;;;24.30;8.90;;;7.90;99.90;;;;;;5086199;27;20047;-72
2021/04/01 05:34:25;;;;;;;29.97;9.37;;;7.90;99.90;;;;;;5086329;27;20522;-72
2021/04/01 05:36:53;;;;;;;21.33;9.00;;;8.00;99.90;;;;;;5088136;27;20083;-72
2021/04/01 05:39:22;;;;;;;19.57;9.90;;;8.10;99.90;;;;;;5087612;27;20739;-72
2021/04/01 05:41:50;;;;;;;20.23;9.10;;;8.10;99.90;;;;;;5087227;27;20057;-72
2021/04/01 05:44:20;;;;;;;21.03;8.67;;;8.20;99.90;;;;;;5083264;27;20067;-72
2021/04/01 05:46:53;;;;;;;21.53;9.20;;;8.20;99.90;;;;;;5085452;27;20051;-72
2021/04/01 05:49:29;;;;;;;27.00;8.90;;;8.30;99.90;;;;;;5085609;27;20054;-72
2021/04/01 05:52:28;;;;;;;25.17;10.73;;;8.40;99.90;;;;;;5081158;27;20081;-72
2021/04/01 05:58:14;;;;;;;23.35;9.45;;;8.60;99.90;;;;;;5085318;27;20104;-72
2021/04/01 06:00:56;;;;;;;25.52;9.63;;;8.60;99.90;;;;;;5087419;27;20099;-72
2021/04/01 06:03:37;;;;;;;23.15;8.65;;;8.60;99.90;;;;;;5090475;27;20043;-72
2021/04/01 06:06:07;;;;;;;23.73;8.57;;;8.60;99.90;;;;;;5093901;27;20063;-72
2021/04/01 06:08:41;;;;;;;23.27;8.70;;;8.70;99.90;;;;;;5087741;27;20524;-72
2021/04/01 06:11:08;;;;;;;23.38;10.30;;;8.70;99.90;;;;;;5087364;27;20047;-71
2021/04/01 06:13:45;;;;;;;20.60;9.50;;;8.80;99.90;;;;;;5087892;27;20043;-72
2021/04/01 06:16:13;;;;;;;24.38;10.18;;;8.80;99.90;;;;;;5088644;27;20816;-71
2021/04/01 06:18:43;;;;;;;21.83;9.52;;;8.80;99.90;;;;;;5088025;27;20055;-71
2021/04/01 06:21:13;;;;;;;25.25;10.40;;;8.90;99.90;;;;;;5087478;27;20494;-72
2021/04/01 06:23:44;;;;;;;18.77;9.85;;;9.10;99.90;;;;;;5086677;27;20051;-72
2021/04/01 06:26:16;;;;;;;19.05;10.15;;;9.10;99.90;;;;;;5061256;27;20083;-69
2021/04/01 06:28:46;;;;;;;22.65;10.32;;;9.20;99.90;;;;;;5084499;27;20052;-71
2021/04/01 06:31:17;;;;;;;21.73;9.23;;;9.50;99.90;;;;;;5086904;27;20039;-71
2021/04/01 06:33:46;;;;;;;30.88;10.45;;;9.50;99.90;;;;;;5086315;27;20043;-72
2021/04/01 06:36:26;;;;;;;29.15;10.48;;;9.60;99.90;;;;;;5085739;27;20170;-71
2021/04/01 06:38:53;;;;;;;28.52;9.80;;;9.70;99.90;;;;;;5087939;27;20059;-71
2021/04/01 06:41:22;;;;;;;22.63;9.82;;;9.90;99.90;;;;;;5090561;27;20167;-72
2021/04/01 06:44:28;;;;;;;21.90;9.65;;;9.90;99.90;;;;;;5089105;27;20420;-71
2021/04/01 06:47:05;;;;;;;20.00;9.40;;;9.90;99.90;;;;;;5052113;27;20423;-71
2021/04/01 06:52:40;;;;;;;23.48;9.70;;;10.10;99.90;;;;;;5093172;27;20075;-71
2021/04/01 06:55:20;;;;;;;29.88;10.55;;;10.10;99.90;;;;;;5093894;27;20439;-71
2021/04/01 06:57:59;;;;;;;26.10;10.80;;;10.30;99.90;;;;;;5095651;27;20058;-72
2021/04/01 07:00:40;;;;;;;24.58;11.57;;;10.50;99.90;;;;;;5092410;27;20439;-72
2021/04/01 07:03:11;;;;;;;27.60;10.82;;;10.70;99.90;;;;;;5097110;28;20057;-71
2021/04/01 07:05:45;;;;;;;24.25;10.60;;;10.80;99.90;;;;;;5093104;28;20550;-72
2021/04/01 07:08:13;;;;;;;27.63;10.38;;;11.00;99.90;;;;;;5096953;28;21371;-72
2021/04/01 07:10:54;;;;;;;33.28;9.75;;;11.10;99.90;;;;;;5096585;28;20111;-71
2021/04/01 07:13:26;;;;;;;28.33;10.27;;;11.30;99.90;;;;;;5091497;28;20194;-71
2021/04/01 07:16:00;;;;;;;30.17;11.10;;;11.30;99.90;;;;;;5095882;28;20051;-72
2021/04/01 07:18:34;;;;;;;32.15;12.38;;;11.40;99.90;;;;;;5095244;28;20565;-71
2021/04/01 07:22:23;;;;;;;27.17;11.40;;;11.60;99.90;;;;;;5097018;28;20051;-71
2021/04/01 07:36:01;;;;;;;23.33;10.73;;;12.50;99.90;;;;;;5059099;28;20043;-71
2021/04/01 07:46:57;;;;;;;17.95;10.20;;;13.00;99.90;;;;;;5092300;28;20078;-72
2021/04/01 07:49:27;;;;;;;21.52;9.90;;;13.20;99.90;;;;;;5095199;28;20522;-70
2021/04/01 07:52:06;;;;;;;24.75;10.18;;;13.40;99.90;;;;;;5093754;28;20051;-70
2021/04/01 07:54:53;;;;;;;23.67;10.80;;;13.70;99.90;;;;;;5094732;28;20412;-70
2021/04/01 07:57:40;;;;;;;23.85;10.70;;;13.40;99.90;;;;;;5093347;28;20063;-71
2021/04/01 08:00:14;;;;;;;22.67;11.02;;;13.60;99.90;;;;;;5093655;28;20395;-71
2021/04/01 08:02:52;;;;;;;24.08;10.98;;;13.80;99.90;;;;;;5091514;28;20175;-71
2021/04/01 08:05:26;;;;;;;21.45;11.50;;;14.00;99.90;;;;;;5092964;28;20047;-71
2021/04/01 08:07:56;;;;;;;22.63;10.80;;;14.20;99.90;;;;;;5093576;28;20504;-71
2021/04/01 08:10:26;;;;;;;29.20;9.95;;;14.40;99.90;;;;;;5094850;27;20514;-71
2021/04/01 08:13:00;;;;;;;26.95;10.50;;;14.50;99.90;;;;;;5097437;27;20064;-71
2021/04/01 08:15:34;;;;;;;24.75;10.43;;;14.70;99.90;;;;;;5098824;27;20153;-74
2021/04/01 08:18:10;;;;;;;28.15;11.02;;;14.90;99.90;;;;;;5098046;27;20098;-71
2021/04/01 08:20:38;;;;;;;18.20;10.50;;;15.10;99.90;;;;;;5099822;27;20167;-71
2021/04/01 08:23:10;;;;;;;25.10;10.70;;;15.30;99.90;;;;;;5096497;27;20066;-71
2021/04/01 08:25:40;;;;;;;27.13;11.07;;;15.70;99.90;;;;;;5094382;27;20047;-71
2021/04/01 08:28:18;;;;;;;27.67;10.50;;;16.20;99.90;;;;;;5095223;27;21548;-70
2021/04/01 08:34:09;;;;;;;27.05;10.80;;;17.80;99.90;;;;;;5106607;27;20519;-71
2021/04/01 08:36:39;;;;;;;21.10;10.85;;;19.00;99.90;;;;;;5105423;27;20373;-70
2021/04/01 08:39:06;;;;;;;20.27;10.52;;;19.80;99.90;;;;;;5107754;27;20047;-71
2021/04/01 08:41:50;;;;;;;21.55;11.13;;;20.50;99.90;;;;;;5098644;27;20043;-71
2021/04/01 08:44:39;;;;;;;22.63;11.15;;;21.50;97.60;;;;;;5094427;27;20047;-72
2021/04/01 08:47:17;;;;;;;23.65;11.55;;;22.20;93.40;;;;;;5097792;27;20109;-71
2021/04/01 08:49:49;;;;;;;21.77;11.30;;;23.20;88.20;;;;;;5095383;27;20468;-72
2021/04/01 08:52:56;;;;;;;20.98;11.35;;;23.50;81.20;;;;;;5094476;27;20043;-72
2021/04/01 08:55:36;;;;;;;21.20;12.43;;;23.50;75.50;;;;;;5095123;27;20468;-71
2021/04/01 08:58:08;;;;;;;26.02;12.30;;;24.50;70.90;;;;;;5095872;27;20051;-71
2021/04/01 09:00:37;;;;;;;22.60;13.00;;;24.90;68.10;;;;;;5093397;27;20047;-71
2021/04/01 09:03:05;;;;;;;23.23;12.55;;;24.80;66.60;;;;;;5092453;27;20546;-72
2021/04/01 09:05:32;;;;;;;24.25;12.98;;;25.50;65.40;;;;;;5095392;27;20487;-74
2021/04/01 09:08:02;;;;;;;22.50;11.75;;;25.40;63.60;;;;;;5098711;27;20488;-74
2021/04/01 09:10:31;;;;;;;21.45;12.45;;;25.20;62.40;;;;;;5095219;27;20142;-74
2021/04/01 09:13:04;;;;;;;21.70;11.93;;;25.40;61.00;;;;;;5093458;27;20051;-73
2021/04/01 09:15:40;;;;;;;26.17;13.35;;;25.70;60.70;;;;;;5094116;27;20472;-71
2021/04/01 09:18:07;;;;;;;23.67;13.10;;;26.10;59.30;;;;;;5095002;27;20047;-71
2021/04/01 09:20:34;;;;;;;26.38;13.07;;;26.20;58.90;;;;;;5095719;27;20754;-71
2021/04/01 09:23:05;;;;;;;25.25;13.52;;;27.20;57.20;;;;;;5096845;27;20051;-71
2021/04/01 09:25:37;;;;;;;27.48;13.27;;;27.60;56.20;;;;;;5097303;27;20309;-72
2021/04/01 09:28:06;;;;;;;24.40;13.40;;;27.60;55.80;;;;;;5095314;27;20580;-72
2021/04/01 09:30:33;;;;;;;26.88;14.23;;;27.10;55.60;;;;;;5095112;27;20494;-70
2021/04/01 09:33:05;;;;;;;22.83;13.73;;;27.30;54.40;;;;;;5095938;27;20526;-71
2021/04/01 09:35:33;;;;;;;26.77;14.77;;;27.90;54.30;;;;;;5093771;27;20504;-71
2021/04/01 09:38:04;;;;;;;28.05;14.90;;;28.60;53.00;;;;;;5094564;27;20058;-71
2021/04/01 09:40:33;;;;;;;26.45;14.32;;;28.90;51.90;;;;;;5096650;27;20232;-71
2021/04/01 09:43:12;;;;;;;30.73;14.93;;;29.60;52.30;;;;;;5094901;27;20051;-71
2021/04/01 09:45:38;;;;;;;28.00;14.63;;;29.90;50.70;;;;;;5097081;27;20058;-70
2021/04/01 09:48:06;;;;;;;26.45;13.93;;;30.20;50.40;;;;;;5096384;27;20565;-70
2021/04/01 09:50:35;;;;;;;39.78;17.20;;;29.90;49.00;;;;;;5091714;27;20043;-70
2021/04/01 09:53:04;;;;;;;29.95;15.43;;;30.10;49.10;;;;;;5090645;27;20048;-71
2021/04/01 09:55:40;;;;;;;30.23;15.45;;;29.50;49.10;;;;;;5091692;27;20062;-71
2021/04/01 09:58:23;;;;;;;33.08;15.68;;;29.10;49.30;;;;;;5093054;27;20059;-71
2021/04/01 10:01:04;;;;;;;29.58;15.88;;;28.90;50.10;;;;;;5092191;27;20051;-70
2021/04/01 10:03:38;;;;;;;28.42;16.42;;;28.30;50.10;;;;;;5091503;27;20055;-71
2021/04/01 10:06:06;;;;;;;37.97;15.77;;;28.10;49.80;;;;;;5093893;27;20047;-70
2021/04/01 10:08:36;;;;;;;28.27;15.70;;;28.10;51.10;;;;;;5096359;27;20054;-73
2021/04/01 10:11:15;;;;;;;34.50;16.08;;;28.10;50.40;;;;;;5095264;27;20052;-71
2021/04/01 10:13:42;;;;;;;29.10;15.38;;;27.70;50.40;;;;;;5091845;27;20055;-70
2021/04/01 10:16:22;;;;;;;27.45;15.73;;;27.40;51.00;;;;;;5092192;27;20108;-71
2021/04/01 10:18:49;;;;;;;36.35;16.50;;;27.40;51.20;;;;;;5094248;27;20051;-70
2021/04/01 10:21:16;;;;;;;30.48;15.18;;;27.30;51.10;;;;;;5095298;27;20047;-70
2021/04/01 10:23:44;;;;;;;37.35;15.25;;;27.70;50.90;;;;;;5093159;27;20051;-70
2021/04/01 10:26:12;;;;;;;36.00;16.55;;;27.80;50.90;;;;;;5094015;27;20048;-71
2021/04/01 10:28:56;;;;;;;34.42;16.02;;;27.80;50.20;;;;;;5093821;27;20055;-70
2021/04/01 10:31:24;;;;;;;33.33;17.08;;;27.40;50.10;;;;;;5092920;27;20100;-70
2021/04/01 10:34:04;;;;;;;29.52;15.45;;;27.00;50.10;;;;;;5096185;27;20104;-71
2021/04/01 10:36:32;;;;;;;41.50;17.58;;;26.50;50.90;;;;;;5097812;27;20044;-70
2021/04/01 10:39:08;;;;;;;37.72;15.45;;;26.00;50.80;;;;;;5090442;27;20058;-71
2021/04/01 10:41:49;;;;;;;36.55;16.65;;;25.40;52.20;;;;;;5097051;27;20070;-71
2021/04/01 10:44:22;;;;;;;35.47;17.20;;;24.90;52.80;;;;;;5093440;27;20056;-70
2021/04/01 10:46:51;;;;;;;33.33;17.45;;;24.40;52.80;;;;;;5097876;27;20480;-72
2021/04/01 10:49:22;;;;;;;36.15;16.65;;;24.10;53.60;;;;;;5096304;27;20043;-71
2021/04/01 10:51:54;;;;;;;37.08;15.73;;;23.60;53.90;;;;;;5095084;27;20054;-72
2021/04/01 10:54:21;;;;;;;37.17;16.73;;;23.40;55.50;;;;;;5096326;27;21537;-72
2021/04/01 10:56:49;;;;;;;40.78;16.88;;;23.10;55.50;;;;;;5095555;27;20051;-73
2021/04/01 10:59:16;;;;;;;32.40;16.13;;;22.80;56.40;;;;;;5094677;27;20051;-70
2021/04/01 11:01:43;;;;;;;38.22;16.77;;;22.60;57.20;;;;;;5093753;28;20051;-71
2021/04/01 11:04:12;;;;;;;31.58;14.50;;;22.50;57.30;;;;;;5092242;28;20103;-71
2021/04/01 11:06:41;;;;;;;38.45;16.80;;;22.50;57.80;;;;;;5092000;28;20091;-70
2021/04/01 11:09:11;;;;;;;45.03;17.00;;;22.80;58.00;;;;;;5091842;28;20495;-70
2021/04/01 11:12:13;;;;;;;41.83;16.23;;;23.30;58.10;;;;;;5089905;28;20054;-70
2021/04/01 11:14:40;;;;;;;41.00;16.13;;;24.50;57.20;;;;;;5092765;28;20444;-70
2021/04/01 11:17:08;;;;;;;36.60;16.55;;;25.60;55.30;;;;;;5095704;28;20108;-70
2021/04/01 11:19:37;;;;;;;29.08;15.10;;;26.50;55.00;;;;;;5092065;28;20048;-70
2021/04/01 11:22:04;;;;;;;30.88;13.95;;;27.20;54.80;;;;;;5091644;28;20055;-70
2021/04/01 11:24:36;;;;;;;30.60;15.13;;;27.70;54.10;;;;;;5092968;28;20044;-70
2021/04/01 11:27:07;;;;;;;28.52;14.30;;;28.40;53.30;;;;;;5094711;28;20435;-70
2021/04/01 11:29:34;;;;;;;25.98;13.60;;;28.60;53.00;;;;;;5092975;28;20048;-70
2021/04/01 11:32:15;;;;;;;32.60;13.93;;;28.80;52.00;;;;;;5091732;28;20137;-70
2021/04/01 11:34:43;;;;;;;27.60;13.70;;;29.40;51.80;;;;;;5093217;28;20124;-70
2021/04/01 11:37:11;;;;;;;26.40;13.82;;;29.80;51.20;;;;;;5090086;28;20051;-70
2021/04/01 11:39:40;;;;;;;28.10;15.68;;;29.90;50.10;;;;;;5090853;28;20539;-70
2021/04/01 11:42:09;;;;;;;28.88;13.90;;;30.30;49.90;;;;;;5091206;28;20055;-71
2021/04/01 11:44:38;;;;;;;28.98;15.00;;;30.50;49.50;;;;;;5092189;28;20068;-71
2021/04/01 11:47:19;;;;;;;27.67;14.95;;;31.00;49.90;;;;;;5095845;27;20434;-71
2021/04/01 11:49:46;;;;;;;28.08;15.30;;;30.80;48.50;;;;;;5096397;27;20628;-71
2021/04/01 11:52:15;;;;;;;27.55;15.27;;;31.30;48.10;;;;;;5096381;27;20052;-70
2021/04/01 11:54:43;;;;;;;31.42;15.93;;;31.30;48.30;;;;;;5097711;27;20105;-71
2021/04/01 11:57:18;;;;;;;30.67;15.75;;;31.60;47.60;;;;;;5094080;27;20563;-70
2021/04/01 11:59:59;;;;;;;28.20;15.63;;;31.40;46.50;;;;;;5092775;27;20361;-70
2021/04/01 12:02:26;;;;;;;32.67;17.42;;;31.10;46.70;;;;;;5089602;27;20582;-70
2021/04/01 12:04:56;;;;;;;31.98;17.23;;;31.20;45.50;;;;;;5092260;27;20050;-70
2021/04/01 12:07:23;;;;;;;36.42;18.73;;;31.50;46.20;;;;;;5091685;27;20419;-70
2021/04/01 12:09:52;;;;;;;30.85;18.05;;;31.60;46.10;;;;;;5089744;27;20459;-70
2021/04/01 12:12:29;;;;;;;32.95;18.73;;;32.00;45.60;;;;;;5092684;27;20047;-70
2021/04/01 12:14:56;;;;;;;30.90;20.30;;;32.10;45.20;;;;;;5090006;27;20079;-69
2021/04/01 12:17:35;;;;;;;34.78;19.52;;;30.90;44.90;;;;;;5090911;27;20606;-70
2021/04/01 12:20:04;;;;;;;32.20;19.40;;;31.60;44.90;;;;;;5089346;27;20286;-70
2021/04/01 12:22:35;;;;;;;37.65;20.70;;;32.00;44.80;;;;;;5088191;27;20043;-69
2021/04/01 12:25:06;;;;;;;31.75;19.55;;;31.90;43.90;;;;;;5089628;27;20169;-69
2021/04/01 12:27:33;;;;;;;30.95;19.52;;;32.40;43.80;;;;;;5091326;27;20050;-70
2021/04/01 12:30:00;;;;;;;34.55;20.90;;;32.00;43.50;;;;;;5089191;27;20774;-69
2021/04/01 12:32:29;;;;;;;34.33;21.95;;;31.30;43.30;;;;;;5091080;27;20083;-70
2021/04/01 12:35:07;;;;;;;36.35;23.63;;;31.70;42.50;;;;;;5092195;27;20059;-70
2021/04/01 12:37:33;;;;;;;32.60;22.92;;;31.80;41.50;;;;;;5092107;27;20454;-70
2021/04/01 12:40:14;;;;;;;37.00;23.35;;;31.50;41.70;;;;;;5090606;27;20067;-70
2021/04/01 12:42:41;;;;;;;37.05;24.92;;;31.70;41.60;;;;;;5089690;27;20120;-70
2021/04/01 12:45:26;;;;;;;37.25;24.70;;;31.30;41.50;;;;;;5091954;27;20086;-70
2021/04/01 12:48:05;;;;;;;40.97;26.13;;;31.40;42.00;;;;;;5094581;27;20058;-70
2021/04/01 12:50:33;;;;;;;39.78;23.08;;;31.00;41.80;;;;;;5089382;27;20167;-70
2021/04/01 12:53:00;;;;;;;35.97;23.08;;;30.60;42.70;;;;;;5089114;27;20039;-69
2021/04/01 12:55:42;;;;;;;35.72;22.02;;;30.80;42.40;;;;;;5086986;27;20047;-69
2021/04/01 12:58:16;;;;;;;33.17;21.20;;;31.20;43.00;;;;;;5091253;27;20479;-69
2021/04/01 13:00:46;;;;;;;32.50;22.38;;;31.30;42.80;;;;;;5095307;27;20064;-69
2021/04/01 13:03:13;;;;;;;30.35;21.75;;;31.60;42.20;;;;;;5094874;27;20510;-69
2021/04/01 13:05:43;;;;;;;35.60;23.88;;;31.50;41.90;;;;;;5095885;27;20097;-69
2021/04/01 13:10:51;;;;;;;36.35;24.05;;;30.60;42.70;;;;;;5085202;27;20043;-69
2021/04/01 13:13:18;;;;;;;39.72;23.50;;;31.00;42.00;;;;;;5094851;27;20078;-68
2021/04/01 13:15:44;;;;;;;32.13;20.92;;;31.00;43.00;;;;;;5095628;27;20048;-69
2021/04/01 13:18:11;;;;;;;30.23;19.15;;;31.40;42.10;;;;;;5095750;27;20789;-69
2021/04/01 13:20:38;;;;;;;29.60;18.27;;;31.10;41.30;;;;;;5096634;27;20078;-69
2021/04/01 13:23:11;;;;;;;24.92;15.23;;;30.40;40.30;;;;;;5091260;27;20054;-69
2021/04/01 13:25:38;;;;;;;22.40;14.20;;;30.20;40.00;;;;;;5093645;27;20104;-69
2021/04/01 13:28:07;;;;;;;24.42;15.57;;;30.50;40.30;;;;;;5092304;27;20100;-69
2021/04/01 13:30:36;;;;;;;26.65;15.77;;;30.80;40.00;;;;;;5092903;27;20055;-69
2021/04/01 13:33:08;;;;;;;24.33;13.35;;;30.70;39.30;;;;;;5097117;27;20043;-69
2021/04/01 13:35:38;;;;;;;22.15;12.80;;;30.00;38.90;;;;;;5096549;27;20489;-69
2021/04/01 13:38:08;;;;;;;21.45;11.15;;;30.10;38.60;;;;;;5097105;27;20062;-68